createdAt,value
2024-03-09T00:01:07.107Z,14.93
2024-03-09T00:03:35.488Z,15.90
2024-03-09T00:06:03.706Z,16.70
2024-03-09T00:08:33.968Z,14.63
2024-03-09T00:11:02.588Z,16.37
2024-03-09T00:13:31.166Z,16.43
2024-03-09T00:16:00.966Z,15.20
2024-03-09T00:18:36.845Z,15.37
2024-03-09T00:21:12.215Z,15.97
2024-03-09T00:23:42.731Z,16.27
2024-03-09T00:26:12.271Z,15.53
2024-03-09T00:28:42.172Z,15.90
2024-03-09T00:31:11.167Z,14.60
2024-03-09T00:33:39.653Z,14.93
2024-03-09T00:36:08.934Z,17.57
2024-03-09T00:38:37.180Z,15.53
2024-03-09T00:41:07.023Z,15.83
2024-03-09T00:43:38.528Z,16.27
2024-03-09T00:46:10.193Z,14.80
2024-03-09T00:48:38.603Z,17.83
2024-03-09T00:51:08.592Z,16.07
2024-03-09T00:53:36.839Z,16.60
2024-03-09T00:56:07.248Z,16.20
2024-03-09T00:58:37.445Z,16.33
2024-03-09T01:01:06.308Z,15.27
2024-03-09T01:03:34.566Z,15.80
2024-03-09T01:06:02.824Z,16.70
2024-03-09T01:08:31.124Z,16.70
2024-03-09T01:10:59.775Z,16.40
2024-03-09T01:13:29.468Z,15.73
2024-03-09T01:15:58.135Z,15.67
2024-03-09T01:18:26.444Z,16.97
2024-03-09T01:20:55.155Z,17.37
2024-03-09T01:23:23.381Z,16.30
2024-03-09T01:25:53.741Z,15.20
2024-03-09T01:28:22.051Z,16.27
2024-03-09T01:30:51.675Z,16.27
2024-03-09T01:33:20.006Z,16.37
2024-03-09T01:35:49.722Z,15.23
2024-03-09T01:38:21.351Z,18.37
2024-03-09T01:40:49.800Z,16.10
2024-03-09T01:43:21.707Z,16.43
2024-03-09T01:45:51.851Z,16.90
2024-03-09T01:48:22.428Z,16.50
2024-03-09T01:50:51.562Z,17.23
2024-03-09T01:53:22.171Z,15.90
2024-03-09T01:55:50.897Z,16.43
2024-03-09T01:58:21.561Z,16.93
2024-03-09T02:00:57.514Z,15.63
2024-03-09T02:03:26.269Z,16.20
2024-03-09T02:05:55.743Z,16.13
2024-03-09T02:08:25.890Z,16.10
2024-03-09T02:10:55.354Z,15.60
2024-03-09T02:13:24.840Z,16.23
2024-03-09T02:15:55.742Z,16.70
2024-03-09T02:18:24.690Z,17.47
2024-03-09T02:20:53.081Z,16.80
2024-03-09T02:23:26.439Z,16.53
2024-03-09T02:25:57.587Z,17.47
2024-03-09T02:28:29.184Z,17.20
2024-03-09T02:30:57.702Z,16.53
2024-03-09T02:33:26.952Z,18.50
2024-03-09T02:35:55.446Z,16.40
2024-03-09T02:38:24.445Z,18.03
2024-03-09T02:40:53.089Z,18.50
2024-03-09T02:43:25.402Z,16.87
2024-03-09T02:45:54.328Z,17.40
2024-03-09T02:48:23.328Z,16.73
2024-03-09T02:50:52.268Z,18.67
2024-03-09T02:53:20.813Z,17.27
2024-03-09T02:55:49.528Z,16.87
2024-03-09T02:58:18.542Z,17.63
2024-03-09T03:00:48.555Z,18.93
2024-03-09T03:03:34.138Z,17.97
2024-03-09T03:06:02.369Z,15.90
2024-03-09T03:08:30.612Z,16.87
2024-03-09T03:10:58.988Z,17.80
2024-03-09T03:13:27.490Z,19.60
2024-03-09T03:15:57.261Z,17.63
2024-03-09T03:18:25.523Z,17.33
2024-03-09T03:20:54.650Z,18.23
2024-03-09T03:23:22.907Z,19.30
2024-03-09T03:25:51.178Z,17.47
2024-03-09T03:28:19.421Z,18.57
2024-03-09T03:30:47.829Z,17.73
2024-03-09T03:33:17.676Z,16.30
2024-03-09T03:35:46.104Z,16.20
2024-03-09T03:38:14.414Z,16.70
2024-03-09T03:40:42.830Z,17.37
2024-03-09T03:43:12.027Z,17.87
2024-03-09T03:45:40.543Z,17.20
2024-03-09T03:48:12.712Z,17.13
2024-03-09T03:50:42.795Z,15.90
2024-03-09T03:53:11.294Z,16.30
2024-03-09T03:55:39.670Z,17.73
2024-03-09T03:58:08.180Z,17.80
2024-03-09T04:00:36.628Z,17.27
2024-03-09T04:03:04.904Z,16.83
2024-03-09T04:05:34.705Z,15.90
2024-03-09T04:08:04.612Z,17.13
2024-03-09T04:10:32.956Z,17.67
2024-03-09T04:13:01.605Z,17.30
2024-03-09T04:15:29.916Z,17.30
2024-03-09T04:17:58.261Z,17.87
2024-03-09T04:20:28.960Z,15.53
2024-03-09T04:22:57.516Z,16.97
2024-03-09T04:25:27.364Z,17.57
2024-03-09T04:27:56.689Z,16.27
2024-03-09T04:30:27.118Z,17.50
2024-03-09T04:32:56.531Z,18.50
2024-03-09T04:35:26.087Z,16.63
2024-03-09T04:37:54.600Z,16.40
2024-03-09T04:40:22.887Z,18.90
2024-03-09T04:42:52.729Z,16.47
2024-03-09T04:45:24.133Z,17.10
2024-03-09T04:47:52.813Z,19.07
2024-03-09T04:50:23.314Z,16.87
2024-03-09T04:52:52.688Z,17.17
2024-03-09T04:55:23.551Z,18.03
2024-03-09T04:57:54.641Z,17.73
2024-03-09T05:00:25.856Z,18.13
2024-03-09T05:02:54.973Z,17.77
2024-03-09T05:05:24.179Z,17.10
2024-03-09T05:07:53.372Z,17.40
2024-03-09T05:10:21.533Z,15.90
2024-03-09T05:12:54.867Z,16.57
2024-03-09T05:15:25.614Z,18.20
2024-03-09T05:17:56.135Z,17.47
2024-03-09T05:20:25.173Z,17.10
2024-03-09T05:22:54.568Z,18.73
2024-03-09T05:25:23.767Z,15.83
2024-03-09T05:27:53.470Z,17.73
2024-03-09T05:30:26.626Z,17.30
2024-03-09T05:32:59.259Z,17.90
2024-03-09T05:35:30.266Z,17.03
2024-03-09T05:38:00.812Z,16.73
2024-03-09T05:40:31.198Z,16.83
2024-03-09T05:43:02.554Z,17.40
2024-03-09T05:45:31.768Z,17.80
2024-03-09T05:48:02.121Z,16.33
2024-03-09T05:50:31.975Z,19.83
2024-03-09T05:53:03.121Z,17.50
2024-03-09T05:55:31.900Z,21.30
2024-03-09T05:58:00.952Z,18.23
2024-03-09T06:00:32.995Z,18.90
2024-03-09T06:03:05.154Z,17.40
2024-03-09T06:05:34.953Z,18.57
2024-03-09T06:08:04.478Z,16.63
2024-03-09T06:10:36.838Z,17.70
2024-03-09T06:13:09.401Z,17.33
2024-03-09T06:15:37.657Z,18.27
2024-03-09T06:18:08.010Z,18.53
2024-03-09T06:20:38.491Z,17.87
2024-03-09T06:23:06.816Z,17.73
2024-03-09T06:25:35.103Z,17.63
2024-03-09T06:28:09.115Z,16.63
2024-03-09T06:30:39.358Z,19.10
2024-03-09T06:33:09.493Z,17.73
2024-03-09T06:35:37.810Z,16.53
2024-03-09T06:38:09.500Z,16.47
2024-03-09T06:40:40.645Z,16.27
2024-03-09T06:43:10.173Z,16.67
2024-03-09T06:45:39.704Z,16.47
2024-03-09T06:48:10.915Z,19.47
2024-03-09T06:50:45.702Z,18.13
2024-03-09T06:53:14.531Z,16.30
2024-03-09T06:55:43.460Z,17.77
2024-03-09T06:58:12.873Z,18.30
2024-03-09T07:00:42.148Z,16.73
2024-03-09T07:03:12.176Z,15.37
2024-03-09T07:05:42.227Z,16.73
2024-03-09T07:08:17.361Z,16.47
2024-03-09T07:10:46.286Z,16.37
2024-03-09T07:13:14.579Z,16.07
2024-03-09T07:15:42.834Z,16.23
2024-03-09T07:18:13.262Z,16.27
2024-03-09T07:20:41.924Z,15.47
2024-03-09T07:23:11.203Z,15.33
2024-03-09T07:25:39.701Z,14.60
2024-03-09T07:28:09.916Z,16.60
2024-03-09T07:30:38.387Z,13.63
2024-03-09T07:33:08.402Z,14.40
2024-03-09T07:35:39.272Z,14.00
2024-03-09T07:38:07.848Z,14.83
2024-03-09T07:40:38.734Z,15.63
2024-03-09T07:43:08.270Z,15.70
2024-03-09T07:45:37.175Z,15.37
2024-03-09T07:48:06.400Z,14.17
2024-03-09T07:50:35.047Z,15.07
2024-03-09T07:53:07.559Z,14.70
2024-03-09T07:55:36.180Z,14.00
2024-03-09T07:58:14.254Z,13.13
2024-03-09T08:00:51.571Z,13.80
2024-03-09T08:03:21.752Z,13.67
2024-03-09T08:05:50.679Z,14.40
2024-03-09T08:08:21.003Z,14.40
2024-03-09T08:10:53.926Z,12.63
2024-03-09T08:13:24.655Z,13.80
2024-03-09T08:15:55.925Z,13.63
2024-03-09T08:18:24.752Z,15.07
2024-03-09T08:20:53.297Z,13.23
2024-03-09T08:23:24.633Z,14.80
2024-03-09T08:25:55.164Z,12.27
2024-03-09T08:28:24.044Z,13.43
2024-03-09T08:30:54.936Z,12.37
2024-03-09T08:33:25.061Z,11.40
2024-03-09T08:35:57.083Z,10.93
2024-03-09T08:38:27.092Z,10.50
2024-03-09T08:40:55.547Z,11.43
2024-03-09T08:43:23.910Z,12.30
2024-03-09T08:45:52.205Z,11.07
2024-03-09T08:48:20.524Z,11.20
2024-03-09T08:50:49.258Z,10.50
2024-03-09T08:53:18.830Z,11.97
2024-03-09T08:55:49.276Z,10.70
2024-03-09T08:58:17.583Z,10.20
2024-03-09T09:00:45.987Z,9.97
2024-03-09T09:03:16.776Z,11.33
2024-03-09T09:05:45.211Z,9.80
2024-03-09T09:08:26.108Z,10.47
2024-03-09T09:10:57.265Z,9.60
2024-03-09T09:13:26.152Z,12.40
2024-03-09T09:15:54.742Z,9.50
2024-03-09T09:18:24.907Z,10.70
2024-03-09T09:20:53.809Z,9.30
2024-03-09T09:23:23.315Z,9.30
2024-03-09T09:25:53.306Z,8.93
2024-03-09T09:28:23.010Z,9.20
2024-03-09T09:30:51.293Z,9.10
2024-03-09T09:33:19.549Z,9.70
2024-03-09T09:35:48.444Z,10.00
2024-03-09T09:38:19.570Z,9.33
2024-03-09T09:40:48.866Z,11.60
2024-03-09T09:43:19.970Z,9.37
2024-03-09T09:45:53.188Z,9.77
2024-03-09T09:48:22.358Z,9.83
2024-03-09T09:50:51.403Z,10.10
2024-03-09T09:53:22.958Z,8.70
2024-03-09T09:55:51.268Z,8.93
2024-03-09T09:58:19.525Z,9.97
2024-03-09T10:00:50.856Z,9.30
2024-03-09T10:03:19.758Z,9.23
2024-03-09T10:05:48.922Z,9.17
2024-03-09T10:08:17.214Z,8.20
2024-03-09T10:10:49.276Z,13.07
2024-03-09T10:13:18.764Z,8.17
2024-03-09T10:15:51.209Z,8.87
2024-03-09T10:18:21.064Z,8.13
2024-03-09T10:20:51.749Z,9.20
2024-03-09T10:23:21.364Z,7.77
2024-03-09T10:25:50.061Z,36.03
2024-03-09T10:28:19.720Z,10.13
2024-03-09T10:30:49.540Z,7.93
2024-03-09T10:33:18.238Z,11.30
2024-03-09T10:35:48.343Z,7.83
2024-03-09T10:38:20.103Z,7.90
2024-03-09T10:40:49.604Z,10.67
2024-03-09T10:43:21.269Z,10.00
2024-03-09T10:45:53.428Z,9.77
2024-03-09T10:48:23.704Z,9.73
2024-03-09T10:51:08.954Z,7.67
2024-03-09T10:53:50.439Z,11.37
2024-03-09T10:56:22.500Z,7.67
2024-03-09T10:58:53.915Z,7.33
2024-03-09T11:01:25.394Z,7.67
2024-03-09T11:03:54.228Z,12.40
2024-03-09T11:06:23.926Z,9.10
2024-03-09T11:08:54.799Z,6.80
2024-03-09T11:11:25.864Z,6.87
2024-03-09T11:13:55.284Z,10.30
2024-03-09T11:16:25.958Z,12.87
2024-03-09T11:18:57.769Z,8.63
2024-03-09T11:21:31.488Z,7.30
2024-03-09T11:24:01.692Z,8.07
2024-03-09T11:26:33.337Z,11.47
2024-03-09T11:29:03.591Z,9.57
2024-03-09T11:31:33.305Z,7.87
2024-03-09T11:34:18.438Z,7.03
2024-03-09T11:36:51.426Z,8.77
2024-03-09T11:39:23.244Z,12.53
2024-03-09T11:41:53.039Z,8.03
2024-03-09T11:44:23.547Z,9.10
2024-03-09T11:46:53.626Z,16.70
2024-03-09T11:49:21.909Z,6.93
2024-03-09T11:51:53.503Z,7.10
2024-03-09T11:54:25.210Z,7.77
2024-03-09T11:56:55.249Z,10.17
2024-03-09T11:59:24.474Z,10.27
2024-03-09T12:02:01.716Z,8.70
2024-03-09T12:04:33.738Z,11.63
2024-03-09T12:07:03.466Z,7.40
2024-03-09T12:09:32.093Z,14.37
2024-03-09T12:12:10.625Z,8.67
2024-03-09T12:14:38.923Z,12.97
2024-03-09T12:17:09.177Z,16.27
2024-03-09T12:19:37.857Z,8.83
2024-03-09T12:22:06.629Z,8.07
2024-03-09T12:24:35.593Z,9.27
2024-03-09T12:27:04.176Z,8.23
2024-03-09T12:29:34.387Z,9.00
2024-03-09T12:32:04.179Z,7.67
2024-03-09T12:34:34.369Z,9.43
2024-03-09T12:37:02.663Z,8.03
2024-03-09T12:39:31.049Z,10.03
2024-03-09T12:42:00.624Z,8.73
2024-03-09T12:44:38.692Z,9.07
2024-03-09T12:47:08.283Z,14.83
2024-03-09T12:49:38.877Z,9.33
2024-03-09T12:52:07.530Z,11.27
2024-03-09T12:54:42.488Z,11.80
2024-03-09T12:57:16.597Z,6.87
2024-03-09T12:59:44.924Z,7.40
2024-03-09T13:02:13.348Z,7.23
2024-03-09T13:04:43.013Z,9.53
2024-03-09T13:07:15.936Z,7.67
2024-03-09T13:09:44.376Z,8.80
2024-03-09T13:12:12.808Z,8.20
2024-03-09T13:14:41.348Z,12.67
2024-03-09T13:17:09.754Z,7.23
2024-03-09T13:19:41.709Z,7.67
2024-03-09T13:22:13.181Z,9.50
2024-03-09T13:24:41.486Z,12.83
2024-03-09T13:27:10.039Z,12.50
2024-03-09T13:29:38.847Z,7.57
2024-03-09T13:32:17.961Z,9.27
2024-03-09T13:34:48.110Z,13.27
2024-03-09T13:37:18.811Z,8.33
2024-03-09T13:39:47.714Z,10.73
2024-03-09T13:42:17.432Z,12.93
2024-03-09T13:44:46.799Z,13.97
2024-03-09T13:47:16.848Z,23.27
2024-03-09T13:49:46.541Z,12.10
2024-03-09T13:52:14.944Z,8.53
2024-03-09T13:54:47.065Z,12.40
2024-03-09T13:57:16.300Z,8.57
2024-03-09T13:59:44.944Z,10.80
2024-03-09T14:02:15.021Z,9.13
2024-03-09T14:04:43.690Z,12.37
2024-03-09T14:07:13.838Z,12.57
2024-03-09T14:09:50.803Z,12.00
2024-03-09T14:12:22.972Z,10.00
2024-03-09T14:14:55.246Z,8.57
2024-03-09T14:17:24.880Z,8.83
2024-03-09T14:19:53.753Z,8.67
2024-03-09T14:22:27.563Z,8.47
2024-03-09T14:25:00.465Z,9.40
2024-03-09T14:27:31.655Z,10.63
2024-03-09T14:30:01.148Z,9.43
2024-03-09T14:32:38.084Z,10.33
2024-03-09T14:35:17.904Z,10.27
2024-03-09T14:37:49.694Z,10.93
2024-03-09T14:40:20.669Z,10.97
2024-03-09T14:42:52.505Z,10.13
2024-03-09T14:45:21.074Z,9.20
2024-03-09T14:47:53.916Z,9.80
2024-03-09T14:50:22.662Z,8.60
2024-03-09T14:52:54.650Z,10.43
2024-03-09T14:55:28.316Z,10.80
2024-03-09T14:57:58.069Z,9.50
2024-03-09T15:00:52.592Z,9.80
2024-03-09T15:03:33.582Z,10.97
2024-03-09T15:06:01.536Z,15.20
2024-03-09T15:08:33.028Z,10.67
2024-03-09T15:11:10.871Z,14.83
2024-03-09T15:13:40.513Z,9.50
2024-03-09T15:16:09.803Z,8.97
2024-03-09T15:18:38.979Z,8.27
2024-03-09T15:21:07.539Z,8.27
2024-03-09T15:23:37.319Z,7.97
2024-03-09T15:26:10.810Z,10.77
2024-03-09T15:28:42.342Z,11.73
2024-03-09T15:31:11.360Z,8.43
2024-03-09T15:33:40.151Z,9.33
2024-03-09T15:36:12.593Z,9.07
2024-03-09T15:38:44.850Z,9.13
2024-03-09T15:41:16.878Z,4.37
2024-03-09T15:43:47.480Z,4.00
2024-03-09T15:46:16.071Z,3.33
2024-03-09T15:48:44.320Z,2.70
2024-03-09T15:51:12.743Z,2.10
2024-03-09T15:53:41.944Z,3.27
2024-03-09T15:56:12.884Z,10.07
2024-03-09T15:58:44.495Z,41.30
2024-03-09T16:01:23.173Z,10.40
2024-03-09T16:03:53.544Z,8.50
2024-03-09T16:06:21.774Z,4.57
2024-03-09T16:08:51.678Z,4.47
2024-03-09T16:11:20.226Z,12.73
2024-03-09T16:13:50.766Z,2.90
2024-03-09T16:16:21.527Z,4.70
2024-03-09T16:18:50.380Z,2.63
2024-03-09T16:21:18.631Z,3.90
2024-03-09T16:23:47.591Z,2.97
2024-03-09T16:26:16.793Z,2.70
2024-03-09T16:28:46.543Z,3.57
2024-03-09T16:31:19.449Z,4.17
2024-03-09T16:33:47.890Z,3.30
2024-03-09T16:36:16.134Z,3.10
2024-03-09T16:38:46.458Z,3.10
2024-03-09T16:41:14.990Z,3.53
2024-03-09T16:43:44.372Z,5.73
2024-03-09T16:46:12.950Z,4.03
2024-03-09T16:48:42.721Z,5.10
2024-03-09T16:51:11.210Z,3.40
2024-03-09T16:53:42.014Z,3.20
2024-03-09T16:56:11.531Z,4.70
2024-03-09T16:58:41.221Z,3.77
2024-03-09T17:01:10.136Z,6.07
2024-03-09T17:03:39.879Z,5.37
2024-03-09T17:06:10.872Z,3.40
2024-03-09T17:08:39.275Z,3.83
2024-03-09T17:11:11.741Z,4.87
2024-03-09T17:13:42.696Z,4.73
2024-03-09T17:16:12.662Z,10.07
2024-03-09T17:18:41.310Z,6.43
2024-03-09T17:21:11.922Z,5.73
2024-03-09T17:23:40.383Z,7.50
2024-03-09T17:26:08.678Z,10.80
2024-03-09T17:28:37.029Z,4.50
2024-03-09T17:31:09.209Z,4.40
2024-03-09T17:33:38.596Z,6.53
2024-03-09T17:36:08.892Z,3.70
2024-03-09T17:38:38.597Z,4.20
2024-03-09T17:41:06.892Z,5.07
2024-03-09T17:43:35.234Z,6.23
2024-03-09T17:46:05.257Z,4.33
2024-03-09T17:48:33.513Z,4.97
2024-03-09T17:51:01.812Z,4.53
2024-03-09T17:53:32.674Z,4.80
2024-03-09T17:56:02.536Z,6.53
2024-03-09T17:58:30.817Z,6.13
2024-03-09T18:00:59.111Z,4.47
2024-03-09T18:03:27.545Z,3.60
2024-03-09T18:05:57.905Z,5.03
2024-03-09T18:08:26.654Z,3.87
2024-03-09T18:10:56.101Z,3.60
2024-03-09T18:13:30.434Z,4.47
2024-03-09T18:16:00.350Z,3.13
2024-03-09T18:18:28.557Z,2.70
2024-03-09T18:21:01.669Z,5.00
2024-03-09T18:23:30.934Z,2.97
2024-03-09T18:25:59.327Z,3.33
2024-03-09T18:28:29.072Z,2.57
2024-03-09T18:30:57.308Z,2.63
2024-03-09T18:33:28.119Z,2.83
2024-03-09T18:35:56.636Z,4.03
2024-03-09T18:38:26.275Z,4.40
2024-03-09T18:40:55.022Z,2.10
2024-03-09T18:43:23.340Z,2.40
2024-03-09T18:45:53.463Z,5.60
2024-03-09T18:48:25.190Z,2.50
2024-03-09T18:50:53.835Z,2.13
2024-03-09T18:53:22.581Z,2.67
2024-03-09T18:55:51.091Z,2.53
2024-03-09T18:58:20.849Z,2.20
2024-03-09T19:00:49.685Z,2.30
2024-03-09T19:03:20.442Z,1.90
2024-03-09T19:05:49.299Z,2.40
2024-03-09T19:08:18.625Z,1.70
2024-03-09T19:10:47.325Z,2.37
2024-03-09T19:13:18.252Z,1.53
2024-03-09T19:15:46.586Z,2.30
2024-03-09T19:18:16.165Z,2.00
2024-03-09T19:20:46.889Z,2.80
2024-03-09T19:23:16.273Z,2.00
2024-03-09T19:25:50.918Z,2.40
2024-03-09T19:28:22.844Z,1.40
2024-03-09T19:30:54.047Z,3.67
2024-03-09T19:33:22.995Z,1.47
2024-03-09T19:35:57.926Z,1.67
2024-03-09T19:38:26.220Z,1.40
2024-03-09T19:40:54.581Z,1.60
2024-03-09T19:43:24.432Z,1.10
2024-03-09T19:45:53.711Z,1.50
2024-03-09T19:48:21.972Z,5.13
2024-03-09T19:50:50.248Z,1.43
2024-03-09T19:53:21.266Z,1.17
2024-03-09T19:55:49.799Z,2.50
2024-03-09T19:58:18.244Z,2.73
2024-03-09T20:00:46.639Z,1.53
2024-03-09T20:03:14.987Z,2.37
2024-03-09T20:05:45.116Z,1.43
2024-03-09T20:08:15.635Z,1.90
2024-03-09T20:10:45.669Z,2.30
2024-03-09T20:13:15.236Z,2.90
2024-03-09T20:15:43.475Z,1.93
2024-03-09T20:18:12.340Z,2.47
2024-03-09T20:20:40.916Z,1.63
2024-03-09T20:23:12.782Z,2.57
2024-03-09T20:25:43.552Z,1.20
2024-03-09T20:28:15.003Z,3.23
2024-03-09T20:30:43.269Z,1.37
2024-03-09T20:33:12.033Z,1.33
2024-03-09T20:35:40.512Z,1.57
2024-03-09T20:38:09.865Z,1.50
2024-03-09T20:40:39.388Z,2.47
2024-03-09T20:43:07.861Z,1.40
2024-03-09T20:45:37.579Z,1.20
2024-03-09T20:48:07.093Z,5.00
2024-03-09T20:50:36.366Z,2.03
2024-03-09T20:53:09.807Z,3.63
2024-03-09T20:55:38.432Z,4.73
2024-03-09T20:58:07.656Z,2.17
2024-03-09T21:00:37.487Z,2.10
2024-03-09T21:03:06.643Z,2.77
2024-03-09T21:05:35.416Z,1.60
2024-03-09T21:08:04.313Z,2.17
2024-03-09T21:10:32.712Z,3.23
2024-03-09T21:13:01.035Z,3.33
2024-03-09T21:15:29.269Z,2.47
2024-03-09T21:17:59.658Z,4.73
2024-03-09T21:20:28.400Z,4.03
2024-03-09T21:22:56.751Z,5.07
2024-03-09T21:25:25.028Z,3.60
2024-03-09T21:27:53.389Z,2.73
2024-03-09T21:30:22.123Z,3.23
2024-03-09T21:32:50.935Z,4.10
2024-03-09T21:35:21.684Z,3.07
2024-03-09T21:37:53.512Z,4.20
2024-03-09T21:40:24.048Z,3.37
2024-03-09T21:42:53.458Z,2.17
2024-03-09T21:45:22.110Z,2.83
2024-03-09T21:47:50.887Z,4.17
2024-03-09T21:50:24.443Z,3.50
2024-03-09T21:52:54.682Z,2.73
2024-03-09T21:55:25.046Z,6.60
2024-03-09T21:57:53.718Z,3.30
2024-03-09T22:00:23.494Z,3.07
2024-03-09T22:02:54.638Z,2.50
2024-03-09T22:05:27.166Z,3.70
2024-03-09T22:07:57.781Z,3.90
2024-03-09T22:10:26.921Z,5.87
2024-03-09T22:12:57.123Z,2.73
2024-03-09T22:15:27.674Z,3.30
2024-03-09T22:17:57.497Z,3.70
2024-03-09T22:20:28.691Z,3.83
2024-03-09T22:22:57.120Z,3.27
2024-03-09T22:25:27.960Z,3.97
2024-03-09T22:27:56.869Z,4.23
2024-03-09T22:30:25.463Z,4.90
2024-03-09T22:32:54.140Z,3.07
2024-03-09T22:35:23.734Z,3.30
2024-03-09T22:37:55.944Z,3.60
2024-03-09T22:40:24.353Z,3.37
2024-03-09T22:42:53.295Z,4.70
2024-03-09T22:45:25.162Z,4.30
2024-03-09T22:47:54.333Z,5.07
2024-03-09T22:50:25.486Z,5.43
2024-03-09T22:52:56.306Z,4.73
2024-03-09T22:55:25.487Z,4.30
2024-03-09T22:57:53.792Z,4.97
2024-03-09T23:00:28.973Z,7.07
2024-03-09T23:02:59.015Z,6.73
2024-03-09T23:05:28.705Z,7.60
2024-03-09T23:07:59.656Z,6.37
2024-03-09T23:10:29.802Z,6.80
2024-03-09T23:12:58.459Z,7.77
2024-03-09T23:15:27.377Z,6.50
2024-03-09T23:17:56.248Z,7.70
2024-03-09T23:20:28.694Z,8.83
2024-03-09T23:23:00.227Z,7.40
2024-03-09T23:25:29.170Z,9.87
2024-03-09T23:27:57.901Z,8.60
2024-03-09T23:30:26.873Z,9.67
2024-03-09T23:32:56.970Z,7.87
2024-03-09T23:35:27.127Z,9.40
2024-03-09T23:37:56.812Z,8.47
2024-03-09T23:40:26.936Z,10.93
2024-03-09T23:42:55.731Z,8.53
2024-03-09T23:45:24.828Z,9.50
2024-03-09T23:47:53.855Z,9.70
2024-03-09T23:50:23.216Z,9.40
2024-03-09T23:52:52.605Z,9.63
2024-03-09T23:55:23.023Z,8.97
2024-03-09T23:57:53.752Z,10.10
